Řízení letového provozu České republiky  
Aktualizace dat:  26.10.2020 23:57:26 UTC English version
   METEO Zobrazení stránky:  26.10.2020 23:58:15 UTC  
vysvětlivky
METAR EDDB 262350Z 23006KT 9999 SCT037 09/08 Q1006 NOSIG=
METAR EDDC 262350Z 21005KT CAVOK 09/06 Q1007=
METAR EDDE 262350Z 21007KT CAVOK 07/04 Q1007=
METAR EDDF 262350Z 22005KT 190V260 9999 FEW006 SCT048 07/06 Q1008 NOSIG=
METAR EDDM 262350Z 20007KT 9999 -RA FEW017 BKN025 04/03 Q1011 RERA NOSIG=
METAR EDDN 262350Z 16005KT 9999 SCT008 07/06 Q1009=
METAR EDDP 262350Z 22006KT 190V250 CAVOK 08/06 Q1006 NOSIG=
METAR EDDT 262350Z 21005KT 9999 FEW045 09/08 Q1006=
METAR EDQM NIL
METAR EPBY 262330Z 18005KT 9000 NSC 11/10 Q1004=
METAR EPGD 262330Z 17004KT 4500 BR OVC005 11/10 Q1004=
METAR EPKK 262330Z VRB01KT 9999 FEW067 09/08 Q1008=
METAR EPKT 262330Z 13005KT 9999 BKN039 12/08 Q1007=
METAR EPLL 262330Z 21003KT 160V260 9999 BKN026 BKN032 13/10 Q1007=
METAR EPPO 262330Z 24006KT CAVOK 11/09 Q1006=
METAR EPRZ 262330Z 15006KT CAVOK 11/09 Q1010=
METAR EPWA 262330Z 15007KT 9999 BKN045 12/10 Q1007 NOSIG=
METAR EPWR 262330Z 26005KT 9999 BKN030 10/08 Q1007=
METAR LHBP 262330Z 06003KT CAVOK 08/08 Q1011 NOSIG=
METAR LHSM 262315Z AUTO VRB03KT CAVOK 11/09 Q1009=
METAR LKBC 270000Z AUTO 27007KT 9000 -RA BKN009 OVC025 07/06 Q1009=
METAR LKCV 262330Z 26005KT 4000 -DZ BR BKN009 OVC018 09/08 Q1008 NOSIG RMK GRN GRN=
METAR LKKB 270000Z 24007KT 9999 SCT039 BKN046 09/07 Q1008 RMK BLU=
METAR LKKU NIL
METAR LKKV 262300Z 25006KT 210V300 9999 SCT013 06/05 Q1007 RMK REG QNH 1005=
METAR LKLN 270000Z AUTO 22004KT 9999 -RA OVC072 08/08 Q1009=
METAR LKMT 262330Z 22012KT 9999 OVC034 14/11 Q1007 NOSIG RMK REG QNH 1005=
METAR LKNA 270000Z 00000KT 9999 BKN026 OVC055 09/08 Q1008 RMK BLU=
METAR LKPD 262330Z 24008KT 8000 SCT010 OVC030 10/10 Q1008 RMK BLU=
METAR LKPJ 262330Z AUTO 18008KT 9999 FEW015 OVC042 11/09 Q1008=
METAR LKPR 262330Z 23008KT 9999 -RA OVC040 08/07 Q1008 NOSIG RMK REG QNH 1005=
METAR LKTB 262330Z 16005KT 9999 BKN036 10/10 Q1008 NOSIG RMK REG QNH 1005=
METAR LKVO NIL
METAR LOWI 262350Z AUTO VRB01KT 7000 -RASN FEW004 BKN005 01/00 Q1012=
METAR LOWL 262350Z AUTO 26013KT 9999 -RA FEW007 SCT011 BKN028 07/06 Q1011=
METAR LOWS 262350Z AUTO 02004KT 350V050 9999 -RA FEW006 SCT008 BKN015 05/04 Q1011=
METAR LOWW 262350Z 30005KT 9999 SCT030 11/08 Q1009 NOSIG=
METAR COR LZIB 262330Z 11003KT 9999 FEW033 08/07 Q1009=
METAR LZKZ 262330Z 19008KT 9999 BKN011 13/12 Q1012=
METAR LZMC NIL
METAR LZPP 262330Z AUTO VRB02KT 9999 FEW052/// 10/08 Q1009=
METAR LZSL 262330Z 02002KT 9000 FEW018 SCT051 BKN065 12/11 Q1011=
METAR LZTT 262330Z 22009KT 9999 BKN036 OVC046 13/08 Q1010=
METAR LZZI 262330Z 17005KT 100V240 9999 BKN044 15/09 Q1008=